createdAt,value
2023-02-23T00:00:28.543Z,16.90
2023-02-23T00:02:56.178Z,15.77
2023-02-23T00:05:23.316Z,16.33
2023-02-23T00:07:49.837Z,14.87
2023-02-23T00:10:18.503Z,15.83
2023-02-23T00:12:45.109Z,15.30
2023-02-23T00:15:11.775Z,15.20
2023-02-23T00:17:38.229Z,15.43
2023-02-23T00:20:09.885Z,16.93
2023-02-23T00:22:36.317Z,17.27
2023-02-23T00:25:03.368Z,16.53
2023-02-23T00:27:29.796Z,16.43
2023-02-23T00:29:56.560Z,15.90
2023-02-23T00:32:24.054Z,14.80
2023-02-23T00:34:50.560Z,15.53
2023-02-23T00:37:18.155Z,15.50
2023-02-23T00:39:44.622Z,17.20
2023-02-23T00:42:11.388Z,16.43
2023-02-23T00:44:40.642Z,16.53
2023-02-23T00:47:07.546Z,16.83
2023-02-23T00:49:34.148Z,16.97
2023-02-23T00:52:00.538Z,16.93
2023-02-23T00:54:27.005Z,17.10
2023-02-23T00:56:53.349Z,17.47
2023-02-23T00:59:20.546Z,18.93
2023-02-23T01:01:47.268Z,17.87
2023-02-23T01:04:13.712Z,17.57
2023-02-23T01:06:41.467Z,18.33
2023-02-23T01:09:13.937Z,16.57
2023-02-23T01:11:41.612Z,17.27
2023-02-23T01:14:08.412Z,17.97
2023-02-23T01:16:35.140Z,17.43
2023-02-23T01:19:03.501Z,16.37
2023-02-23T01:21:31.383Z,18.40
2023-02-23T01:23:58.149Z,18.57
2023-02-23T01:26:29.043Z,17.57
2023-02-23T01:28:56.880Z,17.53
2023-02-23T01:31:24.331Z,17.90
2023-02-23T01:33:54.644Z,17.63
2023-02-23T01:36:21.143Z,17.87
2023-02-23T01:38:49.183Z,17.37
2023-02-23T01:41:16.141Z,17.23
2023-02-23T01:43:55.627Z,17.50
2023-02-23T01:46:22.180Z,17.37
2023-02-23T01:48:48.890Z,16.77
2023-02-23T01:51:25.314Z,16.00
2023-02-23T01:53:54.655Z,16.87
2023-02-23T01:56:27.782Z,17.50
2023-02-23T01:58:56.305Z,17.03
2023-02-23T02:03:58.946Z,16.37
2023-02-23T02:06:28.890Z,17.63
2023-02-23T02:08:57.803Z,17.13
2023-02-23T02:11:30.737Z,17.63
2023-02-23T02:14:02.710Z,16.60
2023-02-23T02:16:46.081Z,17.10
2023-02-23T02:19:20.828Z,17.77
2023-02-23T02:22:09.565Z,17.03
2023-02-23T02:25:02.258Z,16.43
2023-02-23T02:27:43.548Z,16.53
2023-02-23T02:30:28.846Z,17.57
2023-02-23T02:33:05.326Z,15.67
2023-02-23T02:35:34.812Z,16.70
2023-02-23T02:38:19.424Z,16.23
2023-02-23T02:40:54.505Z,17.67
2023-02-23T02:43:40.831Z,17.53
2023-02-23T02:46:07.267Z,18.90
2023-02-23T02:48:39.584Z,17.30
2023-02-23T02:51:17.804Z,16.93
2023-02-23T02:54:07.017Z,17.40
2023-02-23T02:56:40.456Z,17.20
2023-02-23T02:59:33.516Z,15.23
2023-02-23T03:02:18.811Z,17.33
2023-02-23T03:05:03.932Z,16.37
2023-02-23T03:07:52.430Z,16.57
2023-02-23T03:10:43.234Z,15.73
2023-02-23T03:13:37.249Z,15.73
2023-02-23T03:16:34.216Z,15.57
2023-02-23T03:19:25.200Z,16.87
2023-02-23T03:22:15.241Z,16.90
2023-02-23T03:25:08.227Z,17.03
2023-02-23T03:27:53.205Z,17.47
2023-02-23T03:30:40.728Z,16.60
2023-02-23T03:33:30.176Z,16.30
2023-02-23T03:36:31.107Z,16.63
2023-02-23T03:39:21.158Z,16.90
2023-02-23T03:42:09.163Z,15.93
2023-02-23T03:44:56.623Z,15.90
2023-02-23T03:47:43.155Z,15.40
2023-02-23T03:50:30.652Z,18.20
2023-02-23T03:53:18.096Z,16.20
2023-02-23T03:56:06.531Z,16.30
2023-02-23T03:58:57.055Z,16.83
2023-02-23T04:01:43.083Z,16.70
2023-02-23T04:04:29.336Z,16.47
2023-02-23T04:07:16.420Z,16.50
2023-02-23T04:10:01.929Z,17.53
2023-02-23T04:12:47.072Z,16.97
2023-02-23T04:15:20.342Z,17.30
2023-02-23T04:17:47.050Z,16.97
2023-02-23T04:20:13.929Z,17.07
2023-02-23T04:22:40.391Z,26.70
2023-02-23T04:25:09.044Z,30.20
2023-02-23T04:27:36.237Z,18.97
2023-02-23T04:30:03.834Z,15.70
2023-02-23T04:32:30.870Z,16.93
2023-02-23T04:34:57.334Z,16.23
2023-02-23T04:37:23.669Z,17.90
2023-02-23T04:39:50.455Z,16.30
2023-02-23T04:42:17.645Z,15.17
2023-02-23T04:44:44.583Z,16.50
2023-02-23T04:47:11.374Z,15.63
2023-02-23T04:49:38.147Z,16.60
2023-02-23T04:52:04.653Z,16.67
2023-02-23T04:54:31.058Z,16.80
2023-02-23T04:56:57.481Z,16.57
2023-02-23T04:59:23.875Z,26.10
2023-02-23T05:01:50.249Z,19.87
2023-02-23T05:04:16.610Z,18.63
2023-02-23T05:06:43.066Z,19.33
2023-02-23T05:09:09.508Z,18.07
2023-02-23T05:11:35.939Z,20.00
2023-02-23T05:14:02.381Z,18.47
2023-02-23T05:16:29.020Z,19.30
2023-02-23T05:18:55.585Z,19.50
2023-02-23T05:21:22.021Z,19.80
2023-02-23T05:23:48.599Z,19.77
2023-02-23T05:26:14.943Z,18.90
2023-02-23T05:28:42.359Z,49.60
2023-02-23T05:31:09.309Z,21.67
2023-02-23T05:33:42.491Z,19.47
2023-02-23T05:36:10.454Z,19.10
2023-02-23T05:38:36.973Z,18.87
2023-02-23T05:41:07.206Z,18.73
2023-02-23T05:43:34.083Z,20.40
2023-02-23T05:46:01.454Z,19.07
2023-02-23T05:48:31.023Z,19.77
2023-02-23T05:51:00.881Z,20.27
2023-02-23T05:53:27.245Z,21.50
2023-02-23T05:55:53.634Z,18.93
2023-02-23T05:58:20.016Z,20.70
2023-02-23T06:00:46.364Z,19.43
2023-02-23T06:03:13.140Z,19.93
2023-02-23T06:05:39.517Z,19.63
2023-02-23T06:08:05.994Z,19.23
2023-02-23T06:10:32.414Z,20.97
2023-02-23T06:12:58.873Z,20.70
2023-02-23T06:15:25.457Z,20.37
2023-02-23T06:17:51.835Z,20.83
2023-02-23T06:20:18.291Z,20.73
2023-02-23T06:22:44.774Z,20.03
2023-02-23T06:25:12.943Z,22.23
2023-02-23T06:27:40.366Z,20.93
2023-02-23T06:30:06.940Z,22.40
2023-02-23T06:32:33.410Z,30.63
2023-02-23T06:34:59.841Z,23.07
2023-02-23T06:37:26.284Z,20.87
2023-02-23T06:39:52.648Z,19.60
2023-02-23T06:42:19.038Z,22.03
2023-02-23T06:44:45.440Z,23.83
2023-02-23T06:47:12.004Z,24.03
2023-02-23T06:49:40.466Z,23.97
2023-02-23T06:52:07.873Z,25.17
2023-02-23T06:54:34.424Z,26.93
2023-02-23T06:57:00.889Z,24.07
2023-02-23T06:59:27.296Z,25.20
2023-02-23T07:01:53.788Z,24.37
2023-02-23T07:04:20.194Z,26.63
2023-02-23T07:06:46.683Z,24.87
2023-02-23T07:09:13.488Z,30.03
2023-02-23T07:11:41.188Z,30.13
2023-02-23T07:14:12.902Z,30.23
2023-02-23T07:16:41.867Z,30.63
2023-02-23T07:19:08.324Z,57.07
2023-02-23T07:21:35.176Z,29.77
2023-02-23T07:24:04.871Z,30.20
2023-02-23T07:26:32.645Z,31.13
2023-02-23T07:28:59.592Z,30.93
2023-02-23T07:31:26.365Z,29.30
2023-02-23T07:33:54.853Z,31.77
2023-02-23T07:36:22.064Z,30.43
2023-02-23T07:38:48.539Z,30.70
2023-02-23T07:41:14.898Z,28.87
2023-02-23T07:43:42.154Z,28.97
2023-02-23T07:46:08.891Z,30.60
2023-02-23T07:48:35.401Z,28.77
2023-02-23T07:51:01.890Z,29.33
2023-02-23T07:53:28.412Z,30.87
2023-02-23T07:55:58.113Z,28.23
2023-02-23T07:58:25.557Z,29.60
2023-02-23T08:00:52.054Z,29.93
2023-02-23T08:03:18.952Z,28.77
2023-02-23T08:05:45.674Z,28.10
2023-02-23T08:08:12.279Z,27.10
2023-02-23T08:10:38.820Z,28.33
2023-02-23T08:13:05.422Z,28.27
2023-02-23T08:15:31.944Z,27.33
2023-02-23T08:17:58.310Z,25.57
2023-02-23T08:20:24.808Z,23.53
2023-02-23T08:22:54.828Z,25.07
2023-02-23T08:25:21.285Z,24.83
2023-02-23T08:27:48.175Z,24.67
2023-02-23T08:30:15.460Z,26.17
2023-02-23T08:32:42.040Z,26.87
2023-02-23T08:35:09.983Z,25.50
2023-02-23T08:37:36.413Z,24.20
2023-02-23T08:40:03.445Z,24.27
2023-02-23T08:42:29.783Z,24.93
2023-02-23T08:44:56.341Z,24.80
2023-02-23T08:47:24.308Z,25.33
2023-02-23T08:49:50.813Z,25.20
2023-02-23T08:52:17.482Z,25.93
2023-02-23T08:54:43.941Z,26.00
2023-02-23T08:57:12.483Z,24.83
2023-02-23T08:59:39.287Z,25.37
2023-02-23T09:02:07.585Z,25.43
2023-02-23T09:04:35.315Z,25.03
2023-02-23T09:07:02.184Z,25.20
2023-02-23T09:09:28.592Z,25.43
2023-02-23T09:11:55.014Z,25.63
2023-02-23T09:14:21.464Z,23.27
2023-02-23T09:16:47.865Z,24.27
2023-02-23T09:19:14.237Z,25.70
2023-02-23T09:21:40.677Z,23.77
2023-02-23T09:30:28.303Z,23.93
2023-02-23T09:32:55.468Z,26.47
2023-02-23T09:35:22.966Z,26.73
2023-02-23T09:37:50.387Z,30.03
2023-02-23T09:40:18.095Z,29.57
2023-02-23T09:42:59.108Z,33.43
2023-02-23T09:45:43.089Z,33.57
2023-02-23T09:48:28.586Z,34.80
2023-02-23T09:50:56.535Z,34.37
2023-02-23T09:53:22.870Z,36.17
2023-02-23T09:55:50.198Z,38.20
2023-02-23T09:58:23.072Z,34.23
2023-02-23T10:00:56.503Z,34.73
2023-02-23T10:03:31.427Z,38.33
2023-02-23T10:06:01.276Z,37.53
2023-02-23T10:08:30.421Z,40.30
2023-02-23T10:11:04.407Z,41.17
2023-02-23T10:13:45.135Z,40.60
2023-02-23T10:16:36.462Z,38.90
2023-02-23T10:19:13.056Z,42.03
2023-02-23T10:21:40.536Z,42.10
2023-02-23T10:24:11.078Z,38.53
2023-02-23T10:26:49.159Z,39.07
2023-02-23T10:29:20.746Z,39.37
2023-02-23T10:31:48.764Z,39.23
2023-02-23T10:34:17.099Z,38.77
2023-02-23T10:36:50.482Z,39.00
2023-02-23T10:39:17.057Z,38.93
2023-02-23T10:41:43.468Z,36.63
2023-02-23T10:44:20.964Z,38.17
2023-02-23T10:46:50.433Z,36.23
2023-02-23T10:49:22.587Z,37.40
2023-02-23T10:51:49.472Z,37.03
2023-02-23T10:54:34.410Z,38.10
2023-02-23T10:57:01.058Z,37.97
2023-02-23T10:59:28.756Z,36.57
2023-02-23T11:02:02.465Z,35.70
2023-02-23T11:04:30.935Z,38.33
2023-02-23T11:07:08.565Z,35.80
2023-02-23T11:09:46.721Z,36.53
2023-02-23T11:12:32.562Z,36.43
2023-02-23T11:14:59.003Z,34.70
2023-02-23T11:17:36.450Z,34.90
2023-02-23T11:20:25.890Z,33.00
2023-02-23T11:22:52.514Z,32.80
2023-02-23T11:25:29.792Z,30.57
2023-02-23T11:27:58.410Z,33.43
2023-02-23T11:30:29.575Z,31.70
2023-02-23T11:32:57.597Z,32.07
2023-02-23T11:35:23.960Z,31.83
2023-02-23T11:37:50.417Z,31.23
2023-02-23T11:40:21.856Z,31.63
2023-02-23T11:42:55.829Z,33.60
2023-02-23T11:45:23.457Z,32.33
2023-02-23T11:47:51.638Z,30.30
2023-02-23T11:53:13.965Z,29.83
2023-02-23T11:55:40.731Z,31.63
2023-02-23T11:58:22.739Z,31.80
2023-02-23T12:01:03.082Z,30.90
2023-02-23T12:03:32.108Z,29.60
2023-02-23T12:05:59.327Z,32.07
2023-02-23T12:08:45.966Z,28.93
2023-02-23T12:11:16.315Z,30.60
2023-02-23T12:13:45.947Z,29.57
2023-02-23T12:16:21.162Z,28.37
2023-02-23T12:18:55.469Z,30.07
2023-02-23T12:21:36.993Z,30.37
2023-02-23T12:24:08.559Z,28.57
2023-02-23T12:26:48.025Z,31.23
2023-02-23T12:29:23.275Z,28.63
2023-02-23T12:31:52.848Z,28.33
2023-02-23T12:34:38.121Z,30.83
2023-02-23T12:37:16.888Z,29.93
2023-02-23T12:39:45.181Z,27.93
2023-02-23T12:42:22.907Z,30.47
2023-02-23T12:45:04.464Z,28.17
2023-02-23T12:48:00.638Z,28.57
2023-02-23T12:50:29.254Z,28.63
2023-02-23T12:53:06.966Z,27.47
2023-02-23T12:55:50.823Z,28.23
2023-02-23T12:58:21.232Z,27.33
2023-02-23T13:00:59.768Z,27.83
2023-02-23T13:03:26.248Z,28.33
2023-02-23T13:06:05.074Z,29.07
2023-02-23T13:08:40.749Z,27.70
2023-02-23T13:11:14.165Z,28.03
2023-02-23T13:13:49.677Z,25.50
2023-02-23T13:16:30.671Z,28.97
2023-02-23T13:19:15.570Z,33.53
2023-02-23T13:21:45.779Z,27.43
2023-02-23T13:24:19.133Z,28.07
2023-02-23T13:26:51.165Z,27.57
2023-02-23T13:29:26.851Z,27.23
2023-02-23T13:31:53.661Z,29.10
2023-02-23T13:34:39.570Z,27.47
2023-02-23T13:37:07.508Z,26.40
2023-02-23T13:39:48.915Z,24.03
2023-02-23T13:42:18.316Z,23.83
2023-02-23T13:45:03.704Z,23.83
2023-02-23T13:47:52.643Z,23.10
2023-02-23T13:50:19.271Z,23.67
2023-02-23T13:52:46.382Z,24.07
2023-02-23T13:55:37.201Z,21.27
2023-02-23T13:58:17.448Z,23.77
2023-02-23T14:00:44.832Z,22.30
2023-02-23T14:03:23.267Z,23.10
2023-02-23T14:05:52.712Z,23.23
2023-02-23T14:08:22.899Z,20.90
2023-02-23T14:10:52.932Z,22.37
2023-02-23T14:13:21.105Z,20.07
2023-02-23T14:15:49.947Z,20.63
2023-02-23T14:18:19.155Z,20.10
2023-02-23T14:21:03.471Z,19.90
2023-02-23T14:23:33.172Z,17.47
2023-02-23T14:26:11.740Z,16.73
2023-02-23T14:28:39.672Z,17.63
2023-02-23T14:31:17.092Z,16.97
2023-02-23T14:33:45.752Z,16.50
2023-02-23T14:36:28.923Z,17.23
2023-02-23T14:39:01.192Z,15.97
2023-02-23T14:41:27.678Z,15.40
2023-02-23T14:44:06.931Z,14.23
2023-02-23T14:46:36.029Z,14.47
2023-02-23T14:49:08.002Z,14.03
2023-02-23T14:51:42.092Z,13.57
2023-02-23T14:54:27.345Z,14.40
2023-02-23T14:56:56.709Z,12.77
2023-02-23T14:59:24.637Z,13.10
2023-02-23T15:01:51.447Z,13.23
2023-02-23T15:04:20.469Z,11.80
2023-02-23T15:06:47.470Z,13.73
2023-02-23T15:09:22.674Z,11.37
2023-02-23T15:11:50.665Z,12.27
2023-02-23T15:14:26.921Z,10.83
2023-02-23T15:16:56.074Z,10.67
2023-02-23T15:19:24.797Z,11.77
2023-02-23T15:21:52.437Z,11.97
2023-02-23T15:24:24.608Z,12.37
2023-02-23T15:26:51.616Z,13.43
2023-02-23T15:29:19.518Z,13.03
2023-02-23T15:31:53.341Z,12.87
2023-02-23T15:34:21.532Z,13.07
2023-02-23T15:36:50.700Z,13.90
2023-02-23T15:39:18.460Z,13.43
2023-02-23T15:41:47.027Z,14.23
2023-02-23T15:44:24.202Z,14.67
2023-02-23T15:46:55.428Z,14.90
2023-02-23T15:49:24.607Z,14.87
2023-02-23T15:51:52.983Z,16.83
2023-02-23T15:54:22.249Z,15.90
2023-02-23T15:56:50.168Z,15.43
2023-02-23T15:59:20.912Z,14.97
2023-02-23T16:01:47.578Z,15.97
2023-02-23T16:04:14.014Z,16.60
2023-02-23T16:07:07.236Z,17.37
2023-02-23T16:09:37.403Z,17.37
2023-02-23T16:12:05.508Z,16.77
2023-02-23T16:14:42.568Z,19.20
2023-02-23T16:17:21.506Z,16.27
2023-02-23T16:19:48.088Z,16.13
2023-02-23T16:22:22.610Z,15.10
2023-02-23T16:24:52.357Z,15.50
2023-02-23T16:27:20.249Z,15.50
2023-02-23T16:29:46.816Z,15.60
2023-02-23T16:32:19.921Z,13.40
2023-02-23T16:34:46.450Z,15.20
2023-02-23T16:37:18.072Z,11.97
2023-02-23T16:39:44.699Z,11.40
2023-02-23T16:42:28.127Z,10.70
2023-02-23T16:44:54.625Z,10.87
2023-02-23T16:47:24.158Z,11.30
2023-02-23T16:49:51.226Z,19.13
2023-02-23T16:52:25.677Z,13.00
2023-02-23T16:54:55.302Z,12.67
2023-02-23T16:57:25.611Z,11.83
2023-02-23T16:59:52.943Z,12.30
2023-02-23T17:02:20.084Z,13.73
2023-02-23T17:04:49.091Z,12.73
2023-02-23T17:07:16.420Z,9.03
2023-02-23T17:09:43.138Z,8.70
2023-02-23T17:12:11.195Z,7.87
2023-02-23T17:14:37.761Z,6.00
2023-02-23T17:17:04.309Z,6.43
2023-02-23T17:19:33.961Z,5.77
2023-02-23T17:22:00.421Z,6.57
2023-02-23T17:24:26.807Z,5.03
2023-02-23T17:26:55.556Z,5.03
2023-02-23T17:29:22.728Z,5.07
2023-02-23T17:31:50.684Z,4.47
2023-02-23T17:34:17.672Z,4.73
2023-02-23T17:36:44.042Z,4.40
2023-02-23T17:39:10.802Z,5.43
2023-02-23T17:41:37.252Z,6.33
2023-02-23T17:44:05.924Z,3.67
2023-02-23T17:46:32.482Z,4.33
2023-02-23T17:48:58.893Z,4.00
2023-02-23T17:51:25.352Z,3.70
2023-02-23T17:53:51.949Z,5.17
2023-02-23T17:56:20.326Z,4.70
2023-02-23T17:58:47.232Z,3.57
2023-02-23T18:01:13.756Z,4.63
2023-02-23T18:03:40.749Z,3.90
2023-02-23T18:06:09.118Z,4.30
2023-02-23T18:08:36.303Z,4.57
2023-02-23T18:11:02.966Z,4.80
2023-02-23T18:13:30.185Z,4.80
2023-02-23T18:16:01.179Z,4.07
2023-02-23T18:18:28.115Z,3.70
2023-02-23T18:20:56.129Z,4.27
2023-02-23T18:23:23.797Z,4.47
2023-02-23T18:25:50.648Z,4.07
2023-02-23T18:28:17.676Z,4.53
2023-02-23T18:30:44.878Z,4.43
2023-02-23T18:33:12.115Z,5.60
2023-02-23T18:35:39.864Z,4.03
2023-02-23T18:38:10.304Z,3.80
2023-02-23T18:40:37.895Z,4.97
2023-02-23T18:43:04.566Z,3.90
2023-02-23T18:45:31.510Z,3.57
2023-02-23T18:47:57.964Z,3.50
2023-02-23T18:50:26.479Z,3.40
2023-02-23T18:52:54.795Z,4.10
2023-02-23T18:55:22.378Z,3.37
2023-02-23T18:57:51.640Z,2.97
2023-02-23T19:00:18.512Z,3.73
2023-02-23T19:02:46.448Z,3.67
2023-02-23T19:05:13.921Z,4.03
2023-02-23T19:07:41.018Z,3.23
2023-02-23T19:10:09.183Z,3.90
2023-02-23T19:12:35.930Z,3.27
2023-02-23T19:15:03.330Z,3.83
2023-02-23T19:17:30.034Z,3.90
2023-02-23T19:19:56.554Z,3.00
2023-02-23T19:22:23.293Z,3.23
2023-02-23T19:24:49.809Z,3.30
2023-02-23T19:27:17.310Z,3.60
2023-02-23T19:29:44.229Z,3.80
2023-02-23T19:32:11.225Z,3.20
2023-02-23T19:34:40.094Z,3.17
2023-02-23T19:37:06.999Z,3.07
2023-02-23T19:39:33.445Z,3.03
2023-02-23T19:41:59.805Z,2.97
2023-02-23T19:44:26.413Z,4.07
2023-02-23T19:46:52.884Z,3.80
2023-02-23T19:49:19.349Z,3.53
2023-02-23T19:51:47.721Z,3.67
2023-02-23T19:54:14.106Z,3.43
2023-02-23T19:56:40.544Z,3.10
2023-02-23T19:59:07.224Z,4.10
2023-02-23T20:01:33.837Z,5.60
2023-02-23T20:04:06.572Z,5.50
2023-02-23T20:06:41.277Z,2.97
2023-02-23T20:09:09.228Z,3.30
2023-02-23T20:11:35.650Z,4.10
2023-02-23T20:14:04.352Z,3.37
2023-02-23T20:16:30.988Z,3.20
2023-02-23T20:18:57.893Z,3.77
2023-02-23T20:21:26.194Z,3.57
2023-02-23T20:23:53.634Z,2.80
2023-02-23T20:26:22.154Z,2.40
2023-02-23T20:28:50.056Z,2.70
2023-02-23T20:31:21.440Z,2.63
2023-02-23T20:33:51.692Z,3.17
2023-02-23T20:36:19.371Z,2.97
2023-02-23T20:38:45.985Z,2.97
2023-02-23T20:41:12.544Z,3.70
2023-02-23T20:43:39.199Z,3.37
2023-02-23T20:46:06.060Z,2.90
2023-02-23T20:48:33.529Z,2.70
2023-02-23T20:51:01.449Z,2.93
2023-02-23T20:53:28.696Z,2.70
2023-02-23T20:55:55.560Z,2.77
2023-02-23T20:58:28.925Z,2.80
2023-02-23T21:00:57.159Z,2.63
2023-02-23T21:03:24.912Z,2.50
2023-02-23T21:05:52.011Z,2.80
2023-02-23T21:08:19.048Z,2.47
2023-02-23T21:10:45.675Z,2.97
2023-02-23T21:13:12.054Z,2.73
2023-02-23T21:15:39.661Z,3.27
2023-02-23T21:18:06.612Z,2.50
2023-02-23T21:20:33.586Z,2.40
2023-02-23T21:23:00.414Z,2.70
2023-02-23T21:25:27.438Z,2.97
2023-02-23T21:27:55.392Z,3.13
2023-02-23T21:30:22.851Z,3.20
2023-02-23T21:32:50.354Z,2.63
2023-02-23T21:35:17.581Z,3.17
2023-02-23T21:37:44.267Z,3.17
2023-02-23T21:40:12.596Z,2.37
2023-02-23T21:42:40.612Z,2.57
2023-02-23T21:45:08.746Z,2.73
2023-02-23T21:47:37.323Z,3.17
2023-02-23T21:50:03.950Z,2.13
2023-02-23T21:52:31.540Z,2.17
2023-02-23T21:54:59.716Z,2.40
2023-02-23T21:57:28.880Z,2.63
2023-02-23T21:59:55.354Z,2.20
2023-02-23T22:02:21.759Z,2.00
2023-02-23T22:04:49.348Z,1.80
2023-02-23T22:07:16.951Z,2.10
2023-02-23T22:09:43.821Z,1.60
2023-02-23T22:12:10.545Z,1.60
2023-02-23T22:14:36.980Z,1.63
2023-02-23T22:17:04.417Z,2.47
2023-02-23T22:19:30.890Z,2.07
2023-02-23T22:21:57.295Z,1.17
2023-02-23T22:24:23.876Z,1.10
2023-02-23T22:26:56.717Z,1.27
2023-02-23T22:29:24.451Z,1.37
2023-02-23T22:31:51.147Z,1.33
2023-02-23T22:34:18.465Z,1.33
2023-02-23T22:36:45.010Z,1.30
2023-02-23T22:39:18.405Z,1.63
2023-02-23T22:41:45.517Z,1.23
2023-02-23T22:44:13.197Z,1.67
2023-02-23T22:46:40.686Z,1.83
2023-02-23T22:49:07.681Z,1.07
2023-02-23T22:51:34.118Z,1.43
2023-02-23T22:54:00.477Z,1.50
2023-02-23T22:56:26.815Z,1.53
2023-02-23T22:58:54.192Z,1.70
2023-02-23T23:01:20.953Z,2.07
2023-02-23T23:03:47.759Z,1.87
2023-02-23T23:06:16.553Z,1.37
2023-02-23T23:08:44.612Z,1.50
2023-02-23T23:11:12.294Z,2.30
2023-02-23T23:13:44.404Z,1.70
2023-02-23T23:16:32.472Z,1.20
2023-02-23T23:19:02.684Z,1.30
2023-02-23T23:21:30.140Z,1.60
2023-02-23T23:23:58.126Z,1.27
2023-02-23T23:26:25.680Z,1.77
2023-02-23T23:28:56.608Z,1.63
2023-02-23T23:31:28.150Z,1.53
2023-02-23T23:34:02.042Z,1.07
2023-02-23T23:36:32.100Z,1.63
2023-02-23T23:38:59.264Z,2.00
2023-02-23T23:41:26.613Z,1.27
2023-02-23T23:43:54.853Z,0.70
2023-02-23T23:46:22.923Z,1.10
2023-02-23T23:48:49.793Z,1.37
2023-02-23T23:51:16.273Z,1.37
2023-02-23T23:53:42.641Z,1.30
2023-02-23T23:56:10.807Z,2.00
2023-02-23T23:58:37.700Z,1.07
